TimeEDT,TemperatureF,Dew PointF,Humidity,Sea Level PressureIn,VisibilityMPH,Wind Direction,Wind SpeedMPH,Gust SpeedMPH,PrecipitationIn,Events,Conditions,WindDirDegrees,DateUTC
12:56 AM,73.9,66.0,76,30.20,10.0,Calm,Calm,-,N/A,,Clear,0,2013-09-11 04:56:00
1:56 AM,72.0,64.9,78,30.20,10.0,Variable,3.5,-,N/A,,Clear,0,2013-09-11 05:56:00
2:56 AM,71.1,64.9,81,30.19,8.0,Calm,Calm,-,N/A,,Clear,0,2013-09-11 06:56:00
3:56 AM,69.1,64.9,87,30.18,6.0,Calm,Calm,-,N/A,,Clear,0,2013-09-11 07:56:00
4:56 AM,66.9,64.0,90,30.18,5.0,Calm,Calm,-,N/A,,Clear,0,2013-09-11 08:56:00
5:56 AM,66.9,64.0,90,30.19,3.0,Calm,Calm,-,N/A,,Clear,0,2013-09-11 09:56:00
6:56 AM,66.0,64.0,93,30.20,4.0,Calm,Calm,-,N/A,,Clear,0,2013-09-11 10:56:00
7:56 AM,69.1,66.0,90,30.21,4.0,Calm,Calm,-,N/A,,Clear,0,2013-09-11 11:56:00
8:56 AM,75.9,66.0,71,30.21,9.0,WSW,3.5,-,N/A,,Clear,250,2013-09-11 12:56:00
9:56 AM,79.0,64.0,60,30.21,10.0,Variable,5.8,-,N/A,,Clear,0,2013-09-11 13:56:00
10:56 AM,82.0,64.9,56,30.21,10.0,WSW,5.8,-,N/A,,Clear,250,2013-09-11 14:56:00
11:56 AM,82.9,66.0,56,30.19,10.0,Variable,4.6,-,N/A,,Clear,0,2013-09-11 15:56:00
12:56 PM,87.1,66.9,51,30.17,10.0,Variable,4.6,-,N/A,,Clear,0,2013-09-11 16:56:00
1:56 PM,88.0,66.9,49,30.14,10.0,Variable,4.6,-,N/A,,Partly Cloudy,0,2013-09-11 17:56:00
2:56 PM,89.1,66.0,46,30.12,10.0,Variable,4.6,-,N/A,,Mostly Cloudy,0,2013-09-11 18:56:00
3:56 PM,87.1,64.9,48,30.11,10.0,Variable,6.9,-,N/A,,Partly Cloudy,0,2013-09-11 19:56:00
4:56 PM,86.0,64.9,49,30.10,10.0,Calm,Calm,-,N/A,,Clear,0,2013-09-11 20:56:00
5:56 PM,84.9,66.9,55,30.10,10.0,Variable,3.5,-,N/A,,Clear,0,2013-09-11 21:56:00
6:56 PM,81.0,68.0,65,30.09,10.0,Calm,Calm,-,N/A,,Clear,0,2013-09-11 22:56:00
7:56 PM,75.9,69.1,79,30.10,10.0,Calm,Calm,-,N/A,,Clear,0,2013-09-11 23:56:00
8:56 PM,73.9,69.1,85,30.10,9.0,Calm,Calm,-,N/A,,Clear,0,2013-09-12 00:56:00
9:56 PM,73.0,68.0,84,30.10,9.0,Calm,Calm,-,N/A,,Clear,0,2013-09-12 01:56:00
10:56 PM,72.0,66.9,84,30.09,9.0,Calm,Calm,-,N/A,,Scattered Clouds,0,2013-09-12 02:56:00
11:56 PM,73.0,64.9,76,30.08,10.0,Calm,Calm,-,N/A,,Partly Cloudy,0,2013-09-12 03:56:00